Time;durP1;ratioP1;P1;durP2;ratioP2;P2;SDS_P1;SDS_P2;PMS_P1;PMS_P2;Temp;Humidity;BMP_temperature;BMP_pressure;BME280_temperature;BME280_humidity;BME280_pressure;Samples;Min_cycle;Max_cycle;Signal;HPM_P1;HPM_P2
2023/06/24 00:00:18;;;;;;;4.20;3.80;;;;;;;;;;606301;23;1041;-74
2023/06/24 00:00:40;;;;;;;5.75;4.07;;;;;;;;;;609053;23;1087;-73
2023/06/24 00:01:02;;;;;;;5.00;4.00;;;;;;;;;;609552;23;1805;-73
2023/06/24 00:01:28;;;;;;;;;;;;;;;;;;;;;
2023/06/24 00:01:44;;;;;;;4.30;3.70;;;;;;;;;;624084;23;1170;-72
2023/06/24 00:02:00;;;;;;;5.00;3.80;;;;;;;;;;621182;23;1444;-72
2023/06/24 00:02:23;;;;;;;5.05;3.75;;;;;;;;;;613830;23;1180;-73
2023/06/24 00:02:45;;;;;;;4.85;3.70;;;;;;;;;;614395;23;1103;-73
2023/06/24 00:03:04;;;;;;;4.88;3.80;;;;;;;;;;624339;23;1137;-73
2023/06/24 00:03:36;;;;;;;4.68;3.92;;;;;;;;;;613446;23;1026;-73
2023/06/24 00:04:03;;;;;;;4.47;3.90;;;;;;;;;;610146;23;1105;-74
2023/06/24 00:04:25;;;;;;;4.43;3.90;;;;;;;;;;618470;23;1125;-72
2023/06/24 00:04:50;;;;;;;4.47;3.90;;;;;;;;;;626716;23;981;-73
2023/06/24 00:05:18;;;;;;;4.63;3.90;;;;;;;;;;617604;23;1034;-73
2023/06/24 00:05:56;;;;;;;5.25;3.75;;;;;;;;;;626971;23;1329;-74
2023/06/24 00:06:21;;;;;;;5.60;3.90;;;;;;;;;;611303;23;1255;-73
2023/06/24 00:06:39;;;;;;;4.50;3.60;;;;;;;;;;624696;23;1401;-73
2023/06/24 00:07:30;;;;;;;4.28;3.70;;;;;;;;;;614051;23;1143;-74
2023/06/24 00:07:57;;;;;;;5.35;4.00;;;;;;;;;;603870;24;1245;-73
2023/06/24 00:09:31;;;;;;;4.40;4.00;;;;;;;;;;601506;23;1224;-74
2023/06/24 00:09:49;;;;;;;4.90;4.13;;;;;;;;;;606447;23;1385;-73
2023/06/24 00:10:17;;;;;;;5.05;4.10;;;;;;;;;;611841;23;1351;-74
2023/06/24 00:10:36;;;;;;;5.18;3.78;;;;;;;;;;607196;23;1197;-73
2023/06/24 00:10:58;;;;;;;4.40;3.58;;;;;;;;;;607039;23;1335;-74
2023/06/24 00:11:16;;;;;;;4.22;3.88;;;;;;;;;;607753;23;1336;-72
2023/06/24 00:11:41;;;;;;;4.43;4.03;;;;;;;;;;615791;23;1094;-74
2023/06/24 00:12:00;;;;;;;4.40;3.90;;;;;;;;;;616797;23;1360;-73
2023/06/24 00:12:26;;;;;;;4.30;3.90;;;;;;;;;;605824;23;1101;-73
2023/06/24 00:12:42;;;;;;;5.05;4.10;;;;;;;;;;610388;23;1497;-74
2023/06/24 00:13:07;;;;;;;5.53;4.07;;;;;;;;;;605430;23;1209;-74
2023/06/24 00:13:59;;;;;;;4.95;4.00;;;;;;;;;;612640;23;1162;-73
2023/06/24 00:14:24;;;;;;;5.13;3.78;;;;;;;;;;609420;23;883;-73
2023/06/24 00:15:13;;;;;;;;;;;;;;;;;;;;;
2023/06/24 00:18:12;;;;;;;3.88;3.55;;;;;;;;;;602262;24;1205;-74
2023/06/24 00:18:53;;;;;;;4.30;3.90;;;;;;;;;;602218;24;1209;-74
2023/06/24 00:19:09;;;;;;;5.03;3.83;;;;;;;;;;601611;24;1130;-73
2023/06/24 00:19:26;;;;;;;4.53;3.90;;;;;;;;;;600665;24;1216;-73
2023/06/24 00:19:44;;;;;;;4.25;3.78;;;;;;;;;;603053;24;1274;-73
2023/06/24 00:20:07;;;;;;;5.85;3.75;;;;;;;;;;604377;24;1195;-73
2023/06/24 00:20:45;;;;;;;4.17;3.73;;;;;;;;;;604384;24;1194;-74
2023/06/24 00:21:13;;;;;;;4.95;3.70;;;;;;;;;;609272;24;1367;-74
2023/06/24 00:21:31;;;;;;;5.57;3.85;;;;;;;;;;605642;24;904;-73
2023/06/24 00:21:58;;;;;;;6.03;4.00;;;;;;;;;;602859;24;1374;-73
2023/06/24 00:22:17;;;;;;;5.68;3.80;;;;;;;;;;597659;24;1400;-73
2023/06/24 00:22:43;;;;;;;5.13;3.75;;;;;;;;;;603244;24;1330;-73
2023/06/24 00:22:59;;;;;;;4.43;3.70;;;;;;;;;;603243;24;1277;-74
2023/06/24 00:23:24;;;;;;;5.07;3.97;;;;;;;;;;600701;24;1338;-73
2023/06/24 00:23:49;;;;;;;6.28;4.13;;;;;;;;;;608492;23;1312;-75
2023/06/24 00:24:19;;;;;;;4.88;3.90;;;;;;;;;;604365;24;1411;-74
2023/06/24 00:25:05;;;;;;;4.70;3.88;;;;;;;;;;601633;24;1326;-73
2023/06/24 00:25:30;;;;;;;4.93;4.10;;;;;;;;;;599070;24;1057;-74
2023/06/24 00:26:05;;;;;;;;;;;;;;;;;;;;;
2023/06/24 00:26:53;;;;;;;4.30;3.90;;;;;;;;;;599660;24;1106;-74
2023/06/24 00:27:52;;;;;;;4.70;4.20;;;;;;;;;;592832;24;1524;-73
2023/06/24 00:28:42;;;;;;;5.53;3.90;;;;;;;;;;599455;24;1449;-74
2023/06/24 00:30:38;;;;;;;4.43;3.93;;;;;;;;;;590893;24;1050;-74
2023/06/24 00:30:57;;;;;;;4.00;3.60;;;;;;;;;;592792;24;1408;-73
2023/06/24 00:31:16;;;;;;;4.15;3.72;;;;;;;;;;592663;24;1429;-75
2023/06/24 00:33:13;;;;;;;4.90;3.90;;;;;;;;;;595262;24;806;-74
2023/06/24 00:33:35;;;;;;;4.25;3.85;;;;;;;;;;596454;24;1134;-74
2023/06/24 00:33:52;;;;;;;4.10;3.70;;;;;;;;;;601790;24;1501;-73
2023/06/24 00:34:09;;;;;;;4.25;3.80;;;;;;;;;;595033;24;1527;-73
2023/06/24 00:34:33;;;;;;;4.07;3.67;;;;;;;;;;594773;24;1315;-73
2023/06/24 00:34:59;;;;;;;4.82;3.88;;;;;;;;;;604362;24;1491;-73
2023/06/24 00:35:18;;;;;;;4.65;4.03;;;;;;;;;;593224;24;1437;-73
2023/06/24 00:35:37;;;;;;;4.35;3.80;;;;;;;;;;599885;24;1337;-73
2023/06/24 00:35:54;;;;;;;4.85;4.00;;;;;;;;;;598352;24;1399;-73
2023/06/24 00:36:11;;;;;;;5.53;3.95;;;;;;;;;;590201;24;1094;-73
2023/06/24 00:36:27;;;;;;;5.20;3.80;;;;;;;;;;593534;24;1279;-74
2023/06/24 00:37:08;;;;;;;4.80;3.70;;;;;;;;;;596475;24;1334;-73
2023/06/24 00:39:14;;;;;;;5.50;3.92;;;;;;;;;;593833;24;1264;-74
2023/06/24 00:39:38;;;;;;;4.53;4.07;;;;;;;;;;598943;24;1267;-73
2023/06/24 00:40:50;;;;;;;4.90;4.00;;;;;;;;;;597320;24;908;-73
2023/06/24 00:41:23;;;;;;;4.40;4.00;;;;;;;;;;596198;24;1357;-72
2023/06/24 00:41:43;;;;;;;4.53;3.70;;;;;;;;;;596925;24;1164;-72
2023/06/24 00:41:58;;;;;;;4.18;3.70;;;;;;;;;;598425;24;1317;-73
2023/06/24 00:42:29;;;;;;;5.10;4.05;;;;;;;;;;590070;24;1331;-73
2023/06/24 00:43:23;;;;;;;5.30;3.97;;;;;;;;;;594390;24;1356;-73
2023/06/24 00:44:05;;;;;;;5.57;4.00;;;;;;;;;;584861;24;1490;-71
2023/06/24 00:44:51;;;;;;;4.47;3.92;;;;;;;;;;582380;24;1038;-71
2023/06/24 00:45:33;;;;;;;4.63;3.97;;;;;;;;;;597195;24;782;-74
2023/06/24 00:46:15;;;;;;;4.60;4.10;;;;;;;;;;598322;24;1470;-73
2023/06/24 00:46:46;;;;;;;4.78;4.00;;;;;;;;;;592814;24;1465;-72
2023/06/24 00:47:31;;;;;;;4.35;3.95;;;;;;;;;;603843;24;1500;-73
2023/06/24 00:48:08;;;;;;;4.40;3.90;;;;;;;;;;591176;24;1315;-73
2023/06/24 00:48:27;;;;;;;4.88;3.80;;;;;;;;;;587559;24;1196;-72
2023/06/24 00:48:42;;;;;;;4.72;4.10;;;;;;;;;;597526;24;1538;-72
2023/06/24 00:49:02;;;;;;;4.40;3.95;;;;;;;;;;599609;24;1981;-73
2023/06/24 00:49:20;;;;;;;4.90;4.00;;;;;;;;;;593371;24;1512;-73
2023/06/24 00:49:36;;;;;;;5.85;4.05;;;;;;;;;;598088;24;837;-73
2023/06/24 00:50:06;;;;;;;7.00;3.90;;;;;;;;;;596558;24;1167;-72
2023/06/24 00:50:35;;;;;;;4.45;3.95;;;;;;;;;;591537;24;1065;-73
2023/06/24 00:51:00;;;;;;;5.40;4.28;;;;;;;;;;599574;24;1349;-73
2023/06/24 00:51:26;;;;;;;4.97;4.07;;;;;;;;;;593418;24;1442;-74
2023/06/24 00:52:00;;;;;;;4.43;4.03;;;;;;;;;;597811;24;1152;-72
2023/06/24 00:52:42;;;;;;;4.75;3.75;;;;;;;;;;588693;24;1269;-72
2023/06/24 00:53:01;;;;;;;4.63;4.20;;;;;;;;;;594163;24;1214;-72
2023/06/24 00:53:26;;;;;;;4.40;4.00;;;;;;;;;;592548;24;1422;-72
2023/06/24 00:53:57;;;;;;;4.68;3.83;;;;;;;;;;595728;24;1353;-73
2023/06/24 00:54:19;;;;;;;4.20;3.80;;;;;;;;;;591858;24;1279;-74
2023/06/24 00:54:41;;;;;;;4.30;3.90;;;;;;;;;;603006;24;1324;-72
2023/06/24 00:54:57;;;;;;;5.25;4.15;;;;;;;;;;605043;24;1324;-73
2023/06/24 00:55:57;;;;;;;;;;;;;;;;;;;;;
2023/06/24 00:57:01;;;;;;;4.63;4.10;;;;;;;;;;602747;23;1355;-73
2023/06/24 00:57:59;;;;;;;4.88;3.92;;;;;;;;;;608547;23;1191;-73
2023/06/24 00:58:54;;;;;;;;;;;;;;;;;;;;;
2023/06/24 00:59:45;;;;;;;5.18;3.80;;;;;;;;;;609615;23;1350;-73
2023/06/24 01:00:23;;;;;;;4.72;4.00;;;;;;;;;;606224;24;1357;-72
2023/06/24 01:00:45;;;;;;;5.38;4.00;;;;;;;;;;605573;23;1322;-74
2023/06/24 01:01:02;;;;;;;5.38;4.15;;;;;;;;;;611439;23;1365;-74
2023/06/24 01:01:19;;;;;;;4.82;4.15;;;;;;;;;;601686;24;1533;-73
2023/06/24 01:01:38;;;;;;;4.72;3.90;;;;;;;;;;607298;24;1344;-73
2023/06/24 01:01:57;;;;;;;4.32;3.92;;;;;;;;;;608251;23;966;-73
2023/06/24 01:02:32;;;;;;;4.28;3.88;;;;;;;;;;603278;23;1487;-73
2023/06/24 01:02:54;;;;;;;4.30;3.90;;;;;;;;;;601031;24;1367;-72
2023/06/24 01:03:29;;;;;;;4.32;3.92;;;;;;;;;;595881;24;1409;-73
2023/06/24 01:03:54;;;;;;;4.60;4.10;;;;;;;;;;596289;24;1346;-73
2023/06/24 01:05:01;;;;;;;;;;;;;;;;;;;;;
2023/06/24 01:05:58;;;;;;;4.55;4.13;;;;;;;;;;610019;23;1196;-73
2023/06/24 01:06:44;;;;;;;5.28;4.10;;;;;;;;;;589071;24;1422;-74
2023/06/24 01:07:44;;;;;;;4.25;3.85;;;;;;;;;;598735;24;1449;-74
2023/06/24 01:08:39;;;;;;;5.40;4.10;;;;;;;;;;590237;24;1280;-73
2023/06/24 01:09:02;;;;;;;5.10;4.10;;;;;;;;;;584374;24;855;-73
2023/06/24 01:09:30;;;;;;;4.30;3.90;;;;;;;;;;582544;24;1458;-72
2023/06/24 01:10:07;;;;;;;4.55;4.15;;;;;;;;;;591369;24;1404;-74
2023/06/24 01:11:18;;;;;;;4.13;3.65;;;;;;;;;;584726;24;1229;-74
2023/06/24 01:11:37;;;;;;;4.22;3.85;;;;;;;;;;593301;24;1310;-72
2023/06/24 01:11:55;;;;;;;4.28;3.88;;;;;;;;;;595696;24;1382;-73
2023/06/24 01:12:17;;;;;;;4.20;3.78;;;;;;;;;;586610;24;1450;-74
2023/06/24 01:13:17;;;;;;;4.18;3.75;;;;;;;;;;593641;24;1473;-73
2023/06/24 01:13:58;;;;;;;4.25;3.80;;;;;;;;;;589008;24;1363;-72
2023/06/24 01:14:19;;;;;;;4.50;4.10;;;;;;;;;;585331;24;1350;-75
2023/06/24 01:14:38;;;;;;;5.47;3.95;;;;;;;;;;588443;24;1374;-74
2023/06/24 01:14:57;;;;;;;4.45;3.83;;;;;;;;;;592494;24;1119;-73
2023/06/24 01:15:14;;;;;;;4.10;3.70;;;;;;;;;;583986;24;1479;-74
2023/06/24 01:15:33;;;;;;;4.20;3.85;;;;;;;;;;581559;24;1094;-73
2023/06/24 01:15:52;;;;;;;4.47;3.95;;;;;;;;;;585518;24;1079;-74
2023/06/24 01:16:15;;;;;;;4.63;3.80;;;;;;;;;;586823;24;1391;-74
2023/06/24 01:16:38;;;;;;;4.20;3.78;;;;;;;;;;586228;24;1434;-73
2023/06/24 01:17:44;;;;;;;4.05;3.70;;;;;;;;;;588967;24;1537;-74
2023/06/24 01:19:01;;;;;;;4.70;4.10;;;;;;;;;;592863;24;1147;-74
2023/06/24 01:19:46;;;;;;;4.25;3.85;;;;;;;;;;588860;24;1467;-74
2023/06/24 01:20:36;;;;;;;5.10;4.20;;;;;;;;;;596828;24;1169;-73
2023/06/24 01:21:35;;;;;;;4.40;4.00;;;;;;;;;;592796;24;1480;-73
2023/06/24 01:22:46;;;;;;;4.40;3.83;;;;;;;;;;594979;24;1582;-74
2023/06/24 01:23:08;;;;;;;4.70;4.18;;;;;;;;;;598669;24;1290;-74
2023/06/24 01:23:45;;;;;;;4.38;3.97;;;;;;;;;;593788;24;1154;-74
2023/06/24 01:24:33;;;;;;;6.28;4.30;;;;;;;;;;591088;24;1336;-73
2023/06/24 01:25:14;;;;;;;4.22;3.83;;;;;;;;;;592617;24;1142;-73
2023/06/24 01:25:59;;;;;;;4.80;4.10;;;;;;;;;;593368;24;1153;-74
2023/06/24 01:27:07;;;;;;;4.97;4.18;;;;;;;;;;590980;24;1328;-74
2023/06/24 01:28:15;;;;;;;;;;;;;;;;;;;;;
2023/06/24 01:29:45;;;;;;;4.97;4.25;;;;;;;;;;599072;24;1237;-72
2023/06/24 01:31:04;;;;;;;5.53;4.05;;;;;;;;;;599234;24;1434;-73
2023/06/24 01:31:57;;;;;;;4.68;4.20;;;;;;;;;;595754;24;1169;-73
2023/06/24 01:32:28;;;;;;;4.95;4.32;;;;;;;;;;590893;24;1386;-75
2023/06/24 01:33:20;;;;;;;5.18;4.22;;;;;;;;;;595602;24;1473;-75
2023/06/24 01:34:06;;;;;;;4.82;4.30;;;;;;;;;;586875;24;1251;-74
2023/06/24 01:34:39;;;;;;;5.15;4.40;;;;;;;;;;579021;24;1217;-74
2023/06/24 01:35:20;;;;;;;4.93;4.30;;;;;;;;;;585502;24;1361;-74
2023/06/24 01:35:49;;;;;;;5.18;4.40;;;;;;;;;;592002;24;1288;-74
2023/06/24 01:36:15;;;;;;;5.13;4.60;;;;;;;;;;580772;24;1224;-73
2023/06/24 01:36:47;;;;;;;;;;;;;;;;;;;;;
2023/06/24 01:37:47;;;;;;;5.90;4.30;;;;;;;;;;587226;24;725;-70
2023/06/24 01:38:12;;;;;;;4.53;4.13;;;;;;;;;;590127;24;1441;-72
2023/06/24 01:38:40;;;;;;;4.72;4.22;;;;;;;;;;591039;24;1135;-72
2023/06/24 01:39:25;;;;;;;4.43;4.03;;;;;;;;;;590273;24;1372;-71
2023/06/24 01:39:57;;;;;;;6.22;4.05;;;;;;;;;;589508;24;1074;-70
2023/06/24 01:40:44;;;;;;;5.22;4.30;;;;;;;;;;585944;24;1216;-73
2023/06/24 01:41:04;;;;;;;5.32;4.28;;;;;;;;;;589365;24;1269;-74
2023/06/24 01:41:24;;;;;;;6.13;4.57;;;;;;;;;;588655;24;1006;-73
2023/06/24 01:41:50;;;;;;;5.95;4.40;;;;;;;;;;586664;24;1375;-73
2023/06/24 01:42:15;;;;;;;5.35;4.00;;;;;;;;;;584755;24;1340;-72
2023/06/24 01:42:33;;;;;;;5.13;4.20;;;;;;;;;;585123;24;1280;-74
2023/06/24 01:42:58;;;;;;;4.53;4.13;;;;;;;;;;588501;24;1206;-72
2023/06/24 01:43:16;;;;;;;4.63;4.15;;;;;;;;;;587464;24;1334;-72
2023/06/24 01:43:34;;;;;;;5.15;4.25;;;;;;;;;;595113;24;1342;-72
2023/06/24 01:43:55;;;;;;;5.53;4.43;;;;;;;;;;593950;24;1370;-74
2023/06/24 01:44:29;;;;;;;5.22;4.70;;;;;;;;;;581137;24;1149;-74
2023/06/24 01:45:00;;;;;;;4.80;4.30;;;;;;;;;;591257;24;1417;-74
2023/06/24 01:45:29;;;;;;;5.85;4.40;;;;;;;;;;576665;24;1491;-72
2023/06/24 01:45:55;;;;;;;6.30;4.40;;;;;;;;;;585944;24;901;-74
2023/06/24 01:47:43;;;;;;;5.25;4.32;;;;;;;;;;583392;24;1203;-72
2023/06/24 01:48:26;;;;;;;4.75;4.28;;;;;;;;;;591891;24;1342;-73
2023/06/24 01:48:45;;;;;;;5.22;4.40;;;;;;;;;;597935;24;916;-74
2023/06/24 01:49:13;;;;;;;4.75;4.30;;;;;;;;;;588560;24;1418;-73
2023/06/24 01:49:33;;;;;;;4.70;4.30;;;;;;;;;;588271;24;1253;-73
2023/06/24 01:49:58;;;;;;;4.75;4.35;;;;;;;;;;590765;24;1012;-74
2023/06/24 01:50:22;;;;;;;4.55;4.15;;;;;;;;;;581973;24;1021;-73
2023/06/24 01:50:43;;;;;;;4.88;4.32;;;;;;;;;;585053;24;1553;-73
2023/06/24 01:51:06;;;;;;;5.40;4.38;;;;;;;;;;583203;24;1260;-72
2023/06/24 01:51:24;;;;;;;5.10;4.50;;;;;;;;;;582670;24;1317;-72
2023/06/24 01:51:53;;;;;;;5.90;4.40;;;;;;;;;;593680;24;1301;-73
2023/06/24 01:52:13;;;;;;;5.38;4.57;;;;;;;;;;590736;24;1294;-73
2023/06/24 01:52:30;;;;;;;4.93;4.47;;;;;;;;;;593046;24;1287;-74
2023/06/24 01:52:50;;;;;;;5.50;4.50;;;;;;;;;;594023;24;1260;-72
2023/06/24 01:53:22;;;;;;;5.97;4.65;;;;;;;;;;598161;24;1467;-73
2023/06/24 01:53:49;;;;;;;4.90;4.40;;;;;;;;;;602071;24;1325;-73
2023/06/24 01:54:11;;;;;;;6.00;4.60;;;;;;;;;;601204;24;1386;-73
2023/06/24 01:55:11;;;;;;;4.80;4.32;;;;;;;;;;601300;24;1108;-74
2023/06/24 01:55:16;;;;;;;4.95;4.35;;;;;;;;;;598772;24;1193;-74
2023/06/24 01:55:50;;;;;;;5.00;4.50;;;;;;;;;;601376;24;1397;-73
2023/06/24 01:56:43;;;;;;;5.38;4.53;;;;;;;;;;601166;24;1536;-72
2023/06/24 01:57:10;;;;;;;4.82;4.32;;;;;;;;;;603672;23;1491;-74
2023/06/24 01:57:34;;;;;;;5.20;4.70;;;;;;;;;;594421;24;1163;-74
2023/06/24 01:57:52;;;;;;;5.28;4.78;;;;;;;;;;600367;24;1147;-72
2023/06/24 01:58:14;;;;;;;4.97;4.47;;;;;;;;;;596515;24;1310;-74
2023/06/24 01:58:46;;;;;;;4.78;4.30;;;;;;;;;;593876;24;1313;-73
2023/06/24 02:00:24;;;;;;;5.55;4.50;;;;;;;;;;589936;24;739;-72
2023/06/24 02:00:40;;;;;;;6.82;4.60;;;;;;;;;;583391;24;1471;-73
2023/06/24 02:00:57;;;;;;;5.43;4.53;;;;;;;;;;595537;24;1194;-72
2023/06/24 02:01:38;;;;;;;5.90;4.45;;;;;;;;;;590706;24;1370;-72
2023/06/24 02:02:19;;;;;;;4.50;4.10;;;;;;;;;;596701;24;1421;-73
2023/06/24 02:02:42;;;;;;;5.05;4.32;;;;;;;;;;596799;24;1572;-74
2023/06/24 02:03:04;;;;;;;4.85;4.35;;;;;;;;;;599163;24;1376;-73
2023/06/24 02:03:32;;;;;;;5.45;4.40;;;;;;;;;;590120;24;1201;-73
2023/06/24 02:03:49;;;;;;;5.85;4.53;;;;;;;;;;597571;24;1496;-73
2023/06/24 02:04:16;;;;;;;5.72;4.32;;;;;;;;;;592903;24;884;-75
2023/06/24 02:04:42;;;;;;;4.65;4.25;;;;;;;;;;593497;24;1350;-72
2023/06/24 02:05:01;;;;;;;4.70;4.10;;;;;;;;;;595924;24;1517;-74
2023/06/24 02:05:23;;;;;;;5.15;4.40;;;;;;;;;;586261;24;1120;-73
2023/06/24 02:05:56;;;;;;;4.75;4.22;;;;;;;;;;595697;24;1396;-73
2023/06/24 02:06:19;;;;;;;6.07;4.50;;;;;;;;;;589553;24;1263;-73
2023/06/24 02:06:35;;;;;;;5.32;4.40;;;;;;;;;;593338;24;1205;-72
2023/06/24 02:06:54;;;;;;;4.90;4.40;;;;;;;;;;596150;24;1468;-73
2023/06/24 02:07:11;;;;;;;5.03;4.40;;;;;;;;;;598049;24;896;-72
2023/06/24 02:07:31;;;;;;;5.07;4.30;;;;;;;;;;593620;24;1128;-74
2023/06/24 02:07:54;;;;;;;4.53;4.13;;;;;;;;;;595255;24;1519;-74
2023/06/24 02:08:51;;;;;;;4.30;3.90;;;;;;;;;;589733;24;1421;-73
2023/06/24 02:09:35;;;;;;;5.00;4.25;;;;;;;;;;591744;24;1910;-74
2023/06/24 02:09:54;;;;;;;5.82;4.47;;;;;;;;;;581661;24;2047;-72
2023/06/24 02:10:24;;;;;;;6.05;4.50;;;;;;;;;;589509;24;1457;-74
2023/06/24 02:11:07;;;;;;;5.18;4.68;;;;;;;;;;592255;24;1337;-73
2023/06/24 02:11:37;;;;;;;5.50;4.40;;;;;;;;;;593746;24;1287;-73
2023/06/24 02:12:07;;;;;;;4.70;4.30;;;;;;;;;;599176;24;1567;-74
2023/06/24 02:12:36;;;;;;;5.07;4.18;;;;;;;;;;599508;24;1281;-74
2023/06/24 02:12:54;;;;;;;5.63;4.43;;;;;;;;;;603528;24;1322;-72
2023/06/24 02:13:11;;;;;;;5.10;4.60;;;;;;;;;;596052;24;1445;-74
2023/06/24 02:13:35;;;;;;;5.05;4.55;;;;;;;;;;605808;24;1291;-73
2023/06/24 02:14:10;;;;;;;5.07;4.43;;;;;;;;;;607075;23;1238;-76
2023/06/24 02:14:33;;;;;;;5.20;4.43;;;;;;;;;;603572;23;1207;-73
2023/06/24 02:14:59;;;;;;;4.93;4.40;;;;;;;;;;609208;23;1296;-72
2023/06/24 02:15:29;;;;;;;6.20;4.55;;;;;;;;;;606492;23;1422;-73
2023/06/24 02:15:47;;;;;;;5.20;4.68;;;;;;;;;;608879;23;1116;-74
2023/06/24 02:16:09;;;;;;;5.55;4.57;;;;;;;;;;605283;23;1245;-74
2023/06/24 02:16:53;;;;;;;;;;;;;;;;;;;;;
2023/06/24 02:17:57;;;;;;;6.60;4.50;;;;;;;;;;611013;23;1099;-74
2023/06/24 02:18:34;;;;;;;5.53;4.50;;;;;;;;;;598457;24;1079;-73
2023/06/24 02:19:20;;;;;;;;;;;;;;;;;;;;;
2023/06/24 02:19:52;;;;;;;5.88;4.55;;;;;;;;;;629421;23;614;-72
2023/06/24 02:20:12;;;;;;;4.95;4.50;;;;;;;;;;622138;23;1510;-74
2023/06/24 02:20:33;;;;;;;5.10;4.60;;;;;;;;;;617745;23;1190;-72
2023/06/24 02:21:11;;;;;;;5.20;4.70;;;;;;;;;;628274;23;1465;-73
2023/06/24 02:21:32;;;;;;;6.68;4.40;;;;;;;;;;624858;23;1233;-73
2023/06/24 02:21:51;;;;;;;5.65;4.45;;;;;;;;;;626116;23;886;-73
2023/06/24 02:22:13;;;;;;;7.03;4.65;;;;;;;;;;622591;23;855;-73
2023/06/24 02:22:29;;;;;;;7.63;4.78;;;;;;;;;;628644;23;1430;-73
2023/06/24 02:22:45;;;;;;;6.25;4.70;;;;;;;;;;626979;23;1305;-73
2023/06/24 02:23:09;;;;;;;5.30;4.80;;;;;;;;;;621564;23;859;-74
2023/06/24 02:23:25;;;;;;;5.40;4.70;;;;;;;;;;619003;23;1062;-75
2023/06/24 02:23:48;;;;;;;5.07;4.55;;;;;;;;;;615476;23;1524;-73
2023/06/24 02:24:07;;;;;;;5.13;4.55;;;;;;;;;;614737;23;1185;-73
2023/06/24 02:24:31;;;;;;;4.50;4.10;;;;;;;;;;615878;23;1291;-72
2023/06/24 02:25:01;;;;;;;5.22;4.35;;;;;;;;;;626240;23;1410;-73
2023/06/24 02:25:48;;;;;;;;;;;;;;;;;;;;;
2023/06/24 02:26:42;;;;;;;;;;;;;;;;;;;;;
2023/06/24 02:27:17;;;;;;;5.35;4.38;;;;;;;;;;626905;23;1158;-73
2023/06/24 02:27:35;;;;;;;5.15;4.65;;;;;;;;;;617732;23;1378;-73
2023/06/24 02:27:56;;;;;;;5.30;4.72;;;;;;;;;;626494;23;1570;-74
2023/06/24 02:28:12;;;;;;;5.55;4.65;;;;;;;;;;620076;23;1292;-74
2023/06/24 02:28:31;;;;;;;6.43;4.80;;;;;;;;;;620546;23;1499;-74
2023/06/24 02:28:50;;;;;;;5.60;4.60;;;;;;;;;;626331;23;906;-74
2023/06/24 02:29:15;;;;;;;5.10;4.60;;;;;;;;;;622277;23;1964;-74
2023/06/24 02:29:37;;;;;;;5.03;4.53;;;;;;;;;;620377;23;1421;-74
2023/06/24 02:29:59;;;;;;;5.43;4.82;;;;;;;;;;624926;23;1497;-74
2023/06/24 02:30:16;;;;;;;5.25;4.72;;;;;;;;;;613461;23;1275;-73
2023/06/24 02:30:35;;;;;;;4.70;4.30;;;;;;;;;;613266;23;1597;-74
2023/06/24 02:30:52;;;;;;;5.50;4.47;;;;;;;;;;615308;23;1220;-73
2023/06/24 02:31:20;;;;;;;5.38;4.82;;;;;;;;;;611958;23;1446;-73
2023/06/24 02:31:50;;;;;;;5.50;4.90;;;;;;;;;;617478;23;1336;-74
2023/06/24 02:32:55;;;;;;;;;;;;;;;;;;;;;
2023/06/24 02:33:17;;;;;;;5.50;4.90;;;;;;;;;;603926;23;1036;-73
2023/06/24 02:33:44;;;;;;;5.95;4.55;;;;;;;;;;612390;23;1297;-73
2023/06/24 02:35:45;;;;;;;8.30;4.93;;;;;;;;;;599950;24;1109;-73
2023/06/24 02:36:31;;;;;;;5.32;4.60;;;;;;;;;;603651;24;1471;-73
2023/06/24 02:37:52;;;;;;;6.32;5.10;;;;;;;;;;608518;24;790;-71
2023/06/24 02:38:22;;;;;;;5.50;4.93;;;;;;;;;;608157;23;1486;-73
2023/06/24 02:38:56;;;;;;;5.60;4.65;;;;;;;;;;611632;23;1431;-72
2023/06/24 02:39:38;;;;;;;7.25;4.80;;;;;;;;;;608246;23;1361;-73
2023/06/24 02:39:54;;;;;;;5.93;5.00;;;;;;;;;;613682;23;1066;-72
2023/06/24 02:40:47;;;;;;;;;;;;;;;;;;;;;
2023/06/24 02:41:14;;;;;;;6.10;4.60;;;;;;;;;;615346;23;1114;-73
2023/06/24 02:41:49;;;;;;;5.40;4.88;;;;;;;;;;614045;23;1272;-73
2023/06/24 02:42:09;;;;;;;5.05;4.55;;;;;;;;;;616149;23;1518;-73
2023/06/24 02:42:27;;;;;;;5.78;4.72;;;;;;;;;;611560;23;1146;-73
2023/06/24 02:44:41;;;;;;;5.28;4.78;;;;;;;;;;604487;24;759;-72
2023/06/24 02:45:05;;;;;;;5.30;4.80;;;;;;;;;;604813;24;1432;-73
2023/06/24 02:45:28;;;;;;;5.28;4.78;;;;;;;;;;603322;24;1120;-73
2023/06/24 02:47:12;;;;;;;5.65;4.50;;;;;;;;;;593970;24;1116;-71
2023/06/24 02:47:48;;;;;;;5.70;4.30;;;;;;;;;;590564;24;1523;-72
2023/06/24 02:48:35;;;;;;;5.80;4.60;;;;;;;;;;593250;24;1296;-73
2023/06/24 02:49:17;;;;;;;;;;;;;;;;;;;;;
2023/06/24 02:50:04;;;;;;;5.80;4.70;;;;;;;;;;604292;24;1214;-74
2023/06/24 02:50:33;;;;;;;5.13;4.60;;;;;;;;;;601979;23;1088;-73
2023/06/24 02:50:59;;;;;;;7.97;4.40;;;;;;;;;;602629;24;899;-73
2023/06/24 02:51:19;;;;;;;7.22;4.50;;;;;;;;;;598822;24;1480;-72
2023/06/24 02:52:04;;;;;;;6.25;4.32;;;;;;;;;;606772;24;1338;-73
2023/06/24 02:52:28;;;;;;;4.82;4.32;;;;;;;;;;602745;24;1172;-73
2023/06/24 02:53:24;;;;;;;4.72;4.20;;;;;;;;;;606196;24;1429;-72
2023/06/24 02:54:04;;;;;;;5.10;4.20;;;;;;;;;;606339;24;1424;-72
2023/06/24 02:54:24;;;;;;;4.70;4.18;;;;;;;;;;598296;24;1221;-73
2023/06/24 02:55:06;;;;;;;4.45;4.05;;;;;;;;;;602294;24;1404;-72
2023/06/24 02:55:33;;;;;;;4.68;4.25;;;;;;;;;;597877;24;1293;-74
2023/06/24 02:55:58;;;;;;;5.93;4.40;;;;;;;;;;599986;24;1262;-74
2023/06/24 02:56:20;;;;;;;4.60;4.20;;;;;;;;;;594192;24;1465;-73
2023/06/24 02:56:57;;;;;;;4.60;4.20;;;;;;;;;;605332;24;1373;-74
2023/06/24 02:57:22;;;;;;;4.85;4.40;;;;;;;;;;599980;24;1431;-73
2023/06/24 02:57:46;;;;;;;5.85;4.32;;;;;;;;;;606223;23;1447;-74
2023/06/24 02:58:15;;;;;;;5.13;4.32;;;;;;;;;;606050;24;1567;-72
2023/06/24 02:58:53;;;;;;;6.15;4.55;;;;;;;;;;613158;23;1429;-72
2023/06/24 02:59:18;;;;;;;5.68;4.50;;;;;;;;;;604761;24;1479;-74
2023/06/24 02:59:40;;;;;;;6.03;4.47;;;;;;;;;;611145;23;1308;-73
2023/06/24 03:00:02;;;;;;;4.85;4.38;;;;;;;;;;609419;23;1395;-73
2023/06/24 03:00:18;;;;;;;4.97;4.45;;;;;;;;;;599397;24;1317;-72
2023/06/24 03:00:38;;;;;;;4.78;4.30;;;;;;;;;;606408;24;1529;-74
2023/06/24 03:00:58;;;;;;;4.70;4.22;;;;;;;;;;607897;24;1284;-72
2023/06/24 03:01:18;;;;;;;5.90;4.60;;;;;;;;;;600396;24;1515;-73
2023/06/24 03:01:57;;;;;;;5.00;4.50;;;;;;;;;;607482;23;1444;-74
2023/06/24 03:02:37;;;;;;;5.05;4.30;;;;;;;;;;606661;23;1452;-74
2023/06/24 03:03:19;;;;;;;;;;;;;;;;;;;;;
2023/06/24 03:04:16;;;;;;;6.80;4.53;;;;;;;;;;612285;23;1009;-74
2023/06/24 03:05:04;;;;;;;5.47;4.25;;;;;;;;;;608153;23;1250;-74
2023/06/24 03:05:29;;;;;;;5.10;4.60;;;;;;;;;;589488;24;1513;-72
2023/06/24 03:06:05;;;;;;;5.13;4.63;;;;;;;;;;603775;24;1441;-72
2023/06/24 03:06:26;;;;;;;4.95;4.50;;;;;;;;;;594643;24;1388;-74
2023/06/24 03:06:45;;;;;;;6.18;4.65;;;;;;;;;;598177;24;1288;-74
2023/06/24 03:07:13;;;;;;;5.50;4.57;;;;;;;;;;603030;24;1166;-74
2023/06/24 03:07:38;;;;;;;6.05;4.50;;;;;;;;;;601047;24;825;-73
2023/06/24 03:08:31;;;;;;;;;;;;;;;;;;;;;
2023/06/24 03:08:51;;;;;;;5.68;4.60;;;;;;;;;;604280;24;1112;-73
2023/06/24 03:09:35;;;;;;;4.85;4.22;;;;;;;;;;598796;24;1236;-72
2023/06/24 03:10:22;;;;;;;5.13;4.63;;;;;;;;;;592562;24;1583;-73
2023/06/24 03:10:53;;;;;;;4.78;4.35;;;;;;;;;;596698;24;1438;-72
2023/06/24 03:11:15;;;;;;;4.88;4.38;;;;;;;;;;598292;24;1035;-73
2023/06/24 03:11:31;;;;;;;5.00;4.50;;;;;;;;;;599994;24;1207;-73
2023/06/24 03:11:48;;;;;;;4.90;4.50;;;;;;;;;;601600;24;1212;-72
2023/06/24 03:12:09;;;;;;;4.63;4.22;;;;;;;;;;602598;24;1319;-72
2023/06/24 03:12:28;;;;;;;5.00;4.40;;;;;;;;;;599338;24;1256;-73
2023/06/24 03:12:47;;;;;;;5.10;4.60;;;;;;;;;;599098;24;1440;-72
2023/06/24 03:13:23;;;;;;;5.63;4.50;;;;;;;;;;600717;24;1294;-73
2023/06/24 03:13:48;;;;;;;5.10;4.60;;;;;;;;;;609682;23;875;-72
2023/06/24 03:14:19;;;;;;;4.95;4.45;;;;;;;;;;608655;23;1520;-72
2023/06/24 03:14:45;;;;;;;4.97;4.32;;;;;;;;;;610384;23;1271;-74
2023/06/24 03:15:12;;;;;;;4.82;4.32;;;;;;;;;;609828;23;1488;-73
2023/06/24 03:15:40;;;;;;;5.20;4.30;;;;;;;;;;614597;23;1297;-73
2023/06/24 03:16:20;;;;;;;4.63;4.22;;;;;;;;;;612020;23;928;-72
2023/06/24 03:16:44;;;;;;;5.10;4.55;;;;;;;;;;607457;23;1198;-73
2023/06/24 03:17:11;;;;;;;5.57;4.70;;;;;;;;;;611023;23;1319;-74
2023/06/24 03:17:41;;;;;;;6.07;4.55;;;;;;;;;;604600;24;1329;-74
2023/06/24 03:17:59;;;;;;;5.47;4.65;;;;;;;;;;609935;23;1146;-74
2023/06/24 03:18:16;;;;;;;5.40;4.55;;;;;;;;;;605690;23;1409;-72
2023/06/24 03:18:42;;;;;;;4.88;4.30;;;;;;;;;;608794;23;1131;-73
2023/06/24 03:18:58;;;;;;;6.50;4.72;;;;;;;;;;608156;23;1315;-74
2023/06/24 03:19:14;;;;;;;5.80;5.00;;;;;;;;;;604777;23;1249;-73
2023/06/24 03:19:32;;;;;;;6.03;5.00;;;;;;;;;;612217;23;1413;-73
2023/06/24 03:19:49;;;;;;;5.75;4.68;;;;;;;;;;607609;23;1515;-73
2023/06/24 03:20:06;;;;;;;5.07;4.55;;;;;;;;;;607938;23;1533;-72
2023/06/24 03:20:47;;;;;;;5.07;4.57;;;;;;;;;;609313;23;1178;-73
2023/06/24 03:21:09;;;;;;;5.72;4.68;;;;;;;;;;603588;24;1492;-73
2023/06/24 03:22:11;;;;;;;5.20;4.65;;;;;;;;;;608178;23;1167;-73
2023/06/24 03:22:28;;;;;;;5.82;4.45;;;;;;;;;;609518;23;1227;-73
2023/06/24 03:22:52;;;;;;;4.78;4.38;;;;;;;;;;613994;23;1565;-73
2023/06/24 03:23:11;;;;;;;4.65;4.25;;;;;;;;;;615490;23;1499;-73
2023/06/24 03:24:03;;;;;;;4.97;4.50;;;;;;;;;;616249;23;1106;-72
2023/06/24 03:24:15;;;;;;;4.88;4.32;;;;;;;;;;604428;23;1058;-73
2023/06/24 03:24:31;;;;;;;4.90;4.40;;;;;;;;;;613723;23;1293;-72
2023/06/24 03:24:51;;;;;;;4.90;4.40;;;;;;;;;;607249;23;1410;-73
2023/06/24 03:25:07;;;;;;;7.53;4.53;;;;;;;;;;604623;24;1207;-74